Grayson, Oklahoma
Current Conditions -  °F | °C
As of 8:15 PM on Thursday 18 Dec 2014 (Local Time) from KOKM Reporting Station
Haze Haze  
Wind Chill: 40°   Ceiling: 700
Heat Index: 40°   Visibility: 5mi
Dew Point: 39°   Wind: 3mph
Humidity: 97%   Direction: 50°NE
Pressure: 30.21"   Gusts: NA
Location:  35.4729°N, 95.9709°W
Report Text: KOKM 190215Z AUTO 05003KT 5SM BR OVC007 05/04 A3021 RMK AO2 T00450040
Loading
Personal Weather Stations






























Interactive Weather Map New forecast layout! Learn more

10-Day Weather Forecast

Advertisements
Track Severe Weather on mobile